Time;durP1;ratioP1;P1;durP2;ratioP2;P2;SDS_P1;SDS_P2;PMS_P1;PMS_P2;Temp;Humidity;BMP_temperature;BMP_pressure;BME280_temperature;BME280_humidity;BME280_pressure;Samples;Min_cycle;Max_cycle;Signal;HPM_P1;HPM_P2
2022/03/27 00:00:02;;;;;;;11.45;8.65;;;;;;;10.25;63.53;101788.19;5012804;28;20065;-51
2022/03/27 00:02:30;;;;;;;11.60;9.25;;;;;;;10.29;63.53;101783.78;4996119;28;20057;-52
2022/03/27 00:04:58;;;;;;;11.00;8.65;;;;;;;10.35;63.28;101781.78;4994132;28;20057;-51
2022/03/27 00:07:26;;;;;;;12.70;8.73;;;;;;;10.40;63.84;101790.16;4994029;28;20517;-52
2022/03/27 00:09:53;;;;;;;11.07;9.00;;;;;;;10.43;63.63;101785.97;4994453;28;20054;-50
2022/03/27 00:12:21;;;;;;;11.95;9.13;;;;;;;10.51;63.63;101789.00;5006275;28;20050;-52
2022/03/27 00:14:48;;;;;;;10.20;8.15;;;;;;;10.57;63.41;101785.09;5012743;28;20050;-53
2022/03/27 00:17:16;;;;;;;12.80;8.70;;;;;;;10.60;63.34;101782.88;5013389;28;20054;-53
2022/03/27 00:19:45;;;;;;;12.05;9.45;;;;;;;10.64;63.42;101778.41;5012634;28;20388;-53
2022/03/27 00:22:13;;;;;;;10.98;8.55;;;;;;;10.64;63.84;101783.97;5008235;28;20046;-53
2022/03/27 00:24:43;;;;;;;9.13;7.75;;;;;;;10.63;63.49;101787.91;4993910;28;20067;-54
2022/03/27 00:27:14;;;;;;;12.60;8.85;;;;;;;10.55;63.46;101792.09;5001077;28;20049;-51
2022/03/27 00:29:41;;;;;;;10.18;8.35;;;;;;;10.54;63.60;101785.69;5011210;28;20058;-55
2022/03/27 00:32:08;;;;;;;11.27;8.40;;;;;;;10.50;63.64;101787.38;5013555;28;20057;-51
2022/03/27 00:34:36;;;;;;;10.70;8.13;;;;;;;10.48;64.04;101781.25;4999911;28;20419;-55
2022/03/27 00:37:07;;;;;;;10.93;8.63;;;;;;;10.49;64.11;101788.47;5009474;28;20049;-50
2022/03/27 00:39:34;;;;;;;9.90;7.95;;;;;;;10.44;63.95;101782.91;5012443;28;20053;-54
2022/03/27 00:42:02;;;;;;;11.23;8.30;;;;;;;10.44;63.74;101782.09;5012760;28;20053;-50
2022/03/27 00:44:29;;;;;;;10.98;8.10;;;;;;;10.34;63.60;101769.00;5012678;28;20054;-54
2022/03/27 00:46:57;;;;;;;12.00;8.50;;;;;;;10.29;63.66;101780.09;5011659;28;20049;-52
2022/03/27 00:49:25;;;;;;;9.90;8.23;;;;;;;10.24;63.71;101777.34;5000498;28;20050;-51
2022/03/27 00:51:55;;;;;;;10.77;8.23;;;;;;;10.16;63.95;101785.16;5012151;28;20054;-51
2022/03/27 00:54:24;;;;;;;11.43;8.52;;;;;;;10.09;64.35;101779.00;5012725;28;20050;-55
2022/03/27 00:56:51;;;;;;;10.03;8.30;;;;;;;10.01;64.00;101775.97;5011988;28;20060;-55
2022/03/27 00:59:23;;;;;;;11.48;9.30;;;;;;;9.95;64.53;101783.47;5011899;28;21004;-52
2022/03/27 01:01:51;;;;;;;10.55;8.63;;;;;;;9.93;64.20;101780.13;5008585;28;20423;-56
2022/03/27 01:04:18;;;;;;;11.10;8.45;;;;;;;9.90;64.81;101781.53;5011941;28;20060;-55
2022/03/27 01:06:46;;;;;;;9.85;7.93;;;;;;;9.87;65.02;101772.88;5012607;28;20050;-55
2022/03/27 01:12:24;;;;;;;10.45;7.57;;;;;;;9.72;65.22;101777.34;5013134;28;20061;-52
2022/03/27 01:14:56;;;;;;;11.88;8.02;;;;;;;9.71;64.70;101772.88;5011682;28;20050;-55
2022/03/27 01:17:28;;;;;;;9.60;7.53;;;;;;;9.69;64.63;101772.31;5012422;28;20057;-53
2022/03/27 01:19:56;;;;;;;9.80;8.27;;;;;;;9.63;64.74;101765.06;5011153;28;20053;-53
2022/03/27 01:22:25;;;;;;;10.13;7.78;;;;;;;9.61;64.54;101772.88;5012114;28;20082;-54
2022/03/27 01:24:54;;;;;;;11.50;9.05;;;;;;;9.55;64.98;101769.25;5012215;28;20367;-52
2022/03/27 01:27:22;;;;;;;12.20;8.82;;;;;;;9.50;64.86;101762.84;5010887;28;20049;-51
2022/03/27 01:29:55;;;;;;;11.13;8.25;;;;;;;9.44;65.31;101766.72;5011467;28;20061;-53
2022/03/27 01:32:22;;;;;;;12.02;9.60;;;;;;;9.35;65.05;101760.88;5008475;28;20077;-54
2022/03/27 01:34:49;;;;;;;10.63;8.60;;;;;;;9.32;65.71;101759.47;5011631;28;20418;-52
2022/03/27 01:37:17;;;;;;;9.55;7.70;;;;;;;9.29;65.59;101765.56;5012086;28;20050;-50
2022/03/27 01:39:46;;;;;;;11.43;7.55;;;;;;;9.29;64.96;101762.78;5011960;28;20050;-54
2022/03/27 01:42:13;;;;;;;11.52;8.40;;;;;;;9.25;65.15;101758.88;5012174;28;20061;-54
2022/03/27 01:44:41;;;;;;;9.20;7.35;;;;;;;9.24;65.26;101760.00;5010714;28;20058;-53
2022/03/27 01:47:09;;;;;;;11.77;7.88;;;;;;;9.21;65.59;101752.19;5007450;28;20050;-51
2022/03/27 01:49:37;;;;;;;10.25;8.23;;;;;;;9.17;65.75;101751.06;4992235;28;20050;-54
2022/03/27 01:52:05;;;;;;;10.75;8.07;;;;;;;9.14;65.67;101757.19;5000654;28;20522;-54
2022/03/27 01:54:32;;;;;;;10.70;8.02;;;;;;;9.11;65.59;101753.03;5011809;28;20050;-50
2022/03/27 01:57:02;;;;;;;13.30;9.25;;;;;;;9.10;66.19;101750.50;5009449;28;20054;-50
2022/03/27 01:59:30;;;;;;;10.93;8.18;;;;;;;9.07;66.23;101745.47;4992670;28;20058;-50
2022/03/27 02:01:58;;;;;;;11.02;8.50;;;;;;;9.02;66.90;101756.59;5006489;28;20495;-54
2022/03/27 02:04:26;;;;;;;13.63;9.80;;;;;;;9.00;66.86;101750.47;5012108;28;20054;-52
2022/03/27 02:06:53;;;;;;;11.68;9.25;;;;;;;8.96;66.60;101750.16;5010046;28;20065;-49
2022/03/27 02:09:21;;;;;;;12.75;9.35;;;;;;;8.95;66.50;101754.06;4992272;28;20050;-54
2022/03/27 02:11:48;;;;;;;11.35;8.73;;;;;;;8.91;67.11;101748.22;4992568;28;20061;-54
2022/03/27 02:14:18;;;;;;;12.95;8.85;;;;;;;8.90;67.04;101749.34;4998924;28;20379;-53
2022/03/27 02:16:46;;;;;;;10.48;8.40;;;;;;;8.88;66.87;101748.78;5011289;28;20049;-51
2022/03/27 02:19:13;;;;;;;11.10;8.82;;;;;;;8.90;67.32;101754.91;5007588;28;20046;-54
2022/03/27 02:21:43;;;;;;;10.57;8.45;;;;;;;8.85;66.71;101751.25;4992730;28;20050;-51
2022/03/27 02:24:12;;;;;;;12.35;9.48;;;;;;;8.78;67.00;101754.28;4992213;28;20050;-52
2022/03/27 02:26:47;;;;;;;11.85;8.00;;;;;;;8.72;67.72;101755.38;4992404;28;20047;-53
2022/03/27 02:29:14;;;;;;;10.85;8.35;;;;;;;8.69;67.31;101753.97;5012033;28;20050;-52
2022/03/27 02:31:46;;;;;;;11.07;8.35;;;;;;;8.66;67.77;101750.88;5006699;28;20508;-53
2022/03/27 02:34:14;;;;;;;10.60;8.23;;;;;;;8.63;67.13;101756.97;5015033;28;20061;-51
2022/03/27 02:36:42;;;;;;;10.30;7.88;;;;;;;8.62;67.60;101763.63;5014986;28;20498;-51
2022/03/27 02:39:09;;;;;;;10.52;7.95;;;;;;;8.61;67.89;101756.41;5006374;28;20049;-51
2022/03/27 02:41:40;;;;;;;11.23;7.78;;;;;;;8.58;67.78;101751.41;5015131;28;20072;-49
2022/03/27 02:44:09;;;;;;;11.73;8.02;;;;;;;8.59;67.42;101759.47;5004077;28;20093;-49
2022/03/27 02:46:38;;;;;;;11.27;7.93;;;;;;;8.59;67.26;101753.06;5008986;28;20065;-52
2022/03/27 02:49:07;;;;;;;9.83;7.67;;;;;;;8.56;67.24;101748.88;4996539;28;20054;-54
2022/03/27 02:51:34;;;;;;;9.25;7.25;;;;;;;8.55;67.63;101750.00;4995495;28;20054;-55
2022/03/27 02:54:02;;;;;;;9.88;7.30;;;;;;;8.52;67.13;101756.94;4995596;28;20071;-51
2022/03/27 02:56:29;;;;;;;9.80;7.22;;;;;;;8.50;67.74;101753.59;5014907;28;20053;-53
2022/03/27 02:58:57;;;;;;;11.00;8.77;;;;;;;8.58;67.96;101759.72;5007104;28;20050;-50
2022/03/27 03:01:24;;;;;;;10.80;7.72;;;;;;;8.62;67.47;101764.47;5001108;28;20057;-51
2022/03/27 03:03:52;;;;;;;12.60;8.07;;;;;;;8.69;67.97;101753.13;4995344;28;20046;-51
2022/03/27 03:06:24;;;;;;;11.02;7.60;;;;;;;8.78;68.50;101758.97;5014631;28;20061;-53
2022/03/27 03:08:52;;;;;;;11.13;7.72;;;;;;;8.87;68.56;101755.44;5012369;28;20057;-50
2022/03/27 03:11:20;;;;;;;10.57;6.78;;;;;;;8.96;67.95;101758.50;5005126;28;20046;-55
2022/03/27 03:13:49;;;;;;;12.30;7.82;;;;;;;8.99;68.18;101759.91;4994808;28;20483;-55
2022/03/27 03:16:17;;;;;;;10.57;8.00;;;;;;;9.08;67.56;101763.84;5002450;28;20060;-50
2022/03/27 03:18:45;;;;;;;10.50;7.88;;;;;;;9.19;68.41;101762.75;5013601;28;20054;-54
2022/03/27 03:21:13;;;;;;;9.63;7.28;;;;;;;9.29;68.54;101765.56;5004986;28;20073;-54
2022/03/27 03:23:41;;;;;;;9.23;6.90;;;;;;;9.41;68.88;101764.47;4995054;28;20507;-50
2022/03/27 03:26:09;;;;;;;8.25;7.30;;;;;;;9.50;68.21;101760.88;5011895;28;20057;-52
2022/03/27 03:28:37;;;;;;;11.32;7.63;;;;;;;9.62;68.69;101757.03;5012961;28;20057;-54
2022/03/27 03:31:05;;;;;;;11.00;7.25;;;;;;;9.73;68.23;101753.97;5014153;28;20057;-51
2022/03/27 03:33:32;;;;;;;10.75;7.40;;;;;;;9.86;68.12;101757.31;5013500;28;20049;-54
2022/03/27 03:35:59;;;;;;;11.25;7.78;;;;;;;9.95;67.85;101761.19;4994784;28;20058;-54
2022/03/27 03:38:27;;;;;;;10.32;8.07;;;;;;;10.05;67.16;101761.19;5004437;28;20056;-50
2022/03/27 03:40:56;;;;;;;9.63;7.10;;;;;;;10.11;66.03;101757.28;5006462;28;20054;-54
2022/03/27 03:43:23;;;;;;;11.55;6.78;;;;;;;10.21;65.82;101752.84;4994013;28;20054;-54
2022/03/27 03:45:51;;;;;;;8.68;7.55;;;;;;;10.27;65.79;101758.13;5003100;28;20054;-54
2022/03/27 03:48:19;;;;;;;9.05;7.18;;;;;;;10.32;65.71;101754.53;4996081;28;20050;-52
2022/03/27 03:50:46;;;;;;;11.80;7.60;;;;;;;10.39;65.47;101748.66;4994943;28;20054;-55
2022/03/27 03:53:13;;;;;;;8.75;6.93;;;;;;;10.46;64.94;101744.47;4994365;28;20829;-53
2022/03/27 03:55:41;;;;;;;10.45;7.18;;;;;;;10.55;64.85;101751.13;4995206;28;20047;-54
2022/03/27 03:58:09;;;;;;;10.77;6.88;;;;;;;10.60;64.43;101749.44;5007704;28;20060;-51
2022/03/27 04:00:37;;;;;;;10.50;6.93;;;;;;;10.63;64.25;101751.69;4994545;28;20055;-56
2022/03/27 04:03:04;;;;;;;9.32;7.28;;;;;;;10.70;63.99;101750.25;5013290;28;20061;-55
2022/03/27 04:05:33;;;;;;;10.95;7.55;;;;;;;10.74;63.58;101742.97;5014082;28;20379;-54
2022/03/27 04:08:00;;;;;;;9.00;6.72;;;;;;;10.81;63.73;101747.41;5011783;28;20069;-54
2022/03/27 04:10:28;;;;;;;11.10;8.07;;;;;;;10.86;63.25;101750.19;5013304;28;20065;-53
2022/03/27 04:12:57;;;;;;;9.25;7.63;;;;;;;10.85;63.27;101748.50;5013321;28;20041;-54
2022/03/27 04:15:28;;;;;;;10.63;8.07;;;;;;;10.89;63.42;101757.97;5013930;28;20046;-54
2022/03/27 04:18:00;;;;;;;9.90;7.65;;;;;;;10.94;63.21;101750.44;5010785;28;20069;-55
2022/03/27 04:20:27;;;;;;;10.25;7.13;;;;;;;11.00;63.04;101742.88;4994041;28;20058;-54
2022/03/27 04:22:55;;;;;;;10.38;8.13;;;;;;;11.04;62.78;101743.13;4993813;28;20073;-55
2022/03/27 04:25:22;;;;;;;10.57;7.85;;;;;;;11.08;62.69;101735.88;5001981;28;20053;-56
2022/03/27 04:27:51;;;;;;;12.82;8.00;;;;;;;11.12;62.51;101736.97;5011318;28;20674;-55
2022/03/27 04:30:20;;;;;;;9.35;7.10;;;;;;;11.11;62.64;101738.94;5013045;28;20057;-52
2022/03/27 04:32:49;;;;;;;10.50;7.80;;;;;;;11.16;62.85;101730.50;5012372;28;20054;-52
2022/03/27 04:35:16;;;;;;;9.75;7.60;;;;;;;11.14;62.65;101743.09;5012722;28;20402;-51
2022/03/27 04:37:46;;;;;;;8.70;6.47;;;;;;;11.18;62.65;101738.59;5013469;28;20054;-51
2022/03/27 04:40:16;;;;;;;9.90;7.60;;;;;;;11.23;62.62;101734.94;5001327;28;20057;-53
2022/03/27 04:42:44;;;;;;;11.77;7.78;;;;;;;11.27;62.62;101739.66;5012950;28;20061;-53
2022/03/27 04:45:12;;;;;;;8.93;7.65;;;;;;;11.25;62.91;101741.06;5013057;28;20053;-54
2022/03/27 04:47:40;;;;;;;9.18;7.53;;;;;;;11.20;63.32;101741.13;5006712;28;20061;-54
2022/03/27 04:50:10;;;;;;;11.00;8.80;;;;;;;11.24;63.73;101753.38;5012999;28;20057;-52
2022/03/27 04:52:38;;;;;;;9.95;8.25;;;;;;;11.27;64.33;101748.03;5013065;28;20516;-52
2022/03/27 04:55:07;;;;;;;9.93;8.13;;;;;;;11.31;64.49;101753.88;4998634;28;20046;-55
2022/03/27 04:57:35;;;;;;;11.98;9.05;;;;;;;11.29;65.19;101756.94;4994509;28;20061;-54
2022/03/27 05:00:04;;;;;;;10.70;8.55;;;;;;;11.36;65.17;101763.06;5011267;28;20050;-50
2022/03/27 05:02:31;;;;;;;11.48;8.50;;;;;;;11.41;65.09;101755.78;5012535;28;20049;-51
2022/03/27 05:04:59;;;;;;;10.50;8.38;;;;;;;11.43;65.33;101761.91;5012509;28;20045;-52
2022/03/27 05:07:27;;;;;;;10.70;9.60;;;;;;;11.46;65.38;101756.56;5012616;28;20533;-55
2022/03/27 05:09:55;;;;;;;10.23;8.88;;;;;;;11.53;65.57;101756.25;5012996;28;20060;-52
2022/03/27 05:12:22;;;;;;;12.18;9.93;;;;;;;11.57;65.45;101762.94;5012446;28;20054;-53
2022/03/27 05:14:50;;;;;;;12.50;9.82;;;;;;;11.59;65.77;101766.25;5001553;28;20072;-55
2022/03/27 05:17:18;;;;;;;11.68;9.27;;;;;;;11.63;65.83;101767.31;5012070;28;20065;-51
2022/03/27 05:19:45;;;;;;;14.10;11.27;;;;;;;11.69;65.85;101760.56;5012606;28;20057;-51
2022/03/27 05:22:13;;;;;;;12.15;10.52;;;;;;;11.74;66.26;101762.53;4994225;28;20419;-54
2022/03/27 05:24:41;;;;;;;18.33;14.75;;;;;;;11.81;66.55;101767.78;4992779;28;20073;-51
2022/03/27 05:27:09;;;;;;;23.08;17.67;;;;;;;11.84;66.91;101767.19;5008698;28;20050;-56
2022/03/27 05:29:36;;;;;;;17.90;15.82;;;;;;;11.88;67.23;101762.69;5007359;28;20053;-55
2022/03/27 05:32:05;;;;;;;19.27;15.98;;;;;;;11.93;67.31;101766.31;5005686;28;20056;-55
2022/03/27 05:34:32;;;;;;;21.05;16.50;;;;;;;11.98;67.30;101773.78;5012435;28;20352;-54
2022/03/27 05:37:00;;;;;;;22.20;18.38;;;;;;;12.04;67.20;101767.03;5007654;28;20049;-53
2022/03/27 05:39:27;;;;;;;19.83;16.67;;;;;;;12.09;66.91;101771.75;4994678;28;20061;-54
2022/03/27 05:41:56;;;;;;;22.67;18.10;;;;;;;12.13;67.29;101764.44;4997472;28;20533;-51
2022/03/27 05:44:23;;;;;;;25.15;19.02;;;;;;;12.15;66.69;101767.78;4992302;28;20046;-55
2022/03/27 05:46:54;;;;;;;24.55;18.77;;;;;;;12.21;67.04;101772.19;4997701;28;20062;-52
2022/03/27 05:49:21;;;;;;;21.92;18.58;;;;;;;12.22;66.74;101773.03;4995942;28;20054;-57
2022/03/27 05:51:49;;;;;;;20.23;16.23;;;;;;;12.20;66.65;101773.34;5012357;28;20053;-53
2022/03/27 05:54:16;;;;;;;18.65;14.93;;;;;;;12.23;66.23;101777.50;5011480;28;20054;-54
2022/03/27 05:56:44;;;;;;;21.08;17.23;;;;;;;12.24;66.40;101777.22;5002463;28;20517;-54
2022/03/27 05:59:13;;;;;;;20.77;17.50;;;;;;;12.29;66.27;101781.91;4992486;28;20410;-51
2022/03/27 06:01:40;;;;;;;22.52;17.98;;;;;;;12.29;66.35;101776.31;5004602;28;20524;-52
2022/03/27 06:04:08;;;;;;;25.58;20.77;;;;;;;12.31;66.43;101780.50;5010875;28;20061;-55
2022/03/27 06:06:35;;;;;;;23.77;19.10;;;;;;;12.36;66.40;101783.22;5012983;28;20065;-53
2022/03/27 06:09:02;;;;;;;26.33;20.42;;;;;;;12.40;66.35;101780.69;5014220;28;20490;-53
2022/03/27 06:11:30;;;;;;;25.27;21.02;;;;;;;12.47;66.00;101778.34;5015658;28;20142;-55
2022/03/27 06:13:57;;;;;;;28.48;21.70;;;;;;;12.48;65.54;101782.00;4996588;28;20430;-54
2022/03/27 06:16:26;;;;;;;25.70;20.88;;;;;;;12.52;65.56;101788.69;5004082;28;20061;-55
2022/03/27 06:18:53;;;;;;;25.65;22.27;;;;;;;12.56;65.77;101792.53;5009290;28;20089;-55
2022/03/27 06:21:23;;;;;;;22.63;19.38;;;;;;;12.61;65.66;101786.06;5005565;28;20056;-55
2022/03/27 06:23:50;;;;;;;25.90;21.42;;;;;;;12.64;65.27;101791.03;5015476;28;20053;-55
2022/03/27 06:26:17;;;;;;;25.60;20.63;;;;;;;12.66;65.12;101799.97;5015107;28;20046;-57
2022/03/27 06:28:45;;;;;;;22.73;19.98;;;;;;;12.69;64.82;101805.00;4998948;28;20054;-53
2022/03/27 06:31:12;;;;;;;30.15;22.83;;;;;;;12.73;64.35;101790.13;4999541;28;20057;-56
2022/03/27 06:33:41;;;;;;;27.10;22.05;;;;;;;12.75;64.27;101795.41;5011286;28;20054;-50
2022/03/27 06:36:08;;;;;;;29.13;23.27;;;;;;;12.77;64.20;101796.78;4995838;28;20050;-53
2022/03/27 06:38:35;;;;;;;23.55;18.77;;;;;;;12.83;64.06;101805.94;5009029;28;20410;-54
2022/03/27 06:41:03;;;;;;;25.27;20.77;;;;;;;12.84;63.79;101807.59;5015147;28;20053;-53
2022/03/27 06:43:31;;;;;;;24.52;19.30;;;;;;;12.88;63.56;101802.25;5010727;28;20050;-53
2022/03/27 06:46:00;;;;;;;21.77;18.67;;;;;;;12.90;63.52;101805.59;5014728;28;20058;-55
2022/03/27 06:48:28;;;;;;;23.67;19.55;;;;;;;12.90;63.40;101802.78;5010607;28;20453;-51
2022/03/27 06:50:57;;;;;;;21.55;17.92;;;;;;;12.85;63.54;101802.84;5014920;28;20528;-54
2022/03/27 06:53:24;;;;;;;22.33;18.93;;;;;;;12.90;63.43;101811.19;4996305;28;20054;-51
2022/03/27 06:55:52;;;;;;;23.08;17.67;;;;;;;12.92;63.36;101804.16;4995643;28;20371;-53
2022/03/27 06:58:19;;;;;;;21.10;17.02;;;;;;;12.98;62.81;101807.72;5002860;28;20057;-54
2022/03/27 07:03:31;;;;;;;20.58;17.63;;;;;;;12.98;63.20;101810.53;5020459;28;20046;-52
2022/03/27 07:06:00;;;;;;;22.23;18.45;;;;;;;13.02;62.97;101806.00;5014487;28;20042;-54
2022/03/27 07:08:27;;;;;;;23.30;18.80;;;;;;;13.05;63.15;101801.78;5014090;28;20058;-56
2022/03/27 07:10:57;;;;;;;24.88;18.85;;;;;;;13.02;63.09;101814.41;5014787;28;20057;-54
2022/03/27 07:13:25;;;;;;;24.88;18.92;;;;;;;12.96;63.01;101808.03;5013588;28;20807;-54
2022/03/27 07:15:52;;;;;;;26.55;21.60;;;;;;;13.06;63.02;101814.63;5013058;28;20053;-56
2022/03/27 07:18:20;;;;;;;25.95;20.95;;;;;;;13.15;62.87;101815.63;5012976;28;20057;-52
2022/03/27 07:20:48;;;;;;;22.38;18.02;;;;;;;13.25;62.51;101812.72;5014363;28;20054;-55
2022/03/27 07:23:18;;;;;;;21.15;17.67;;;;;;;13.31;62.01;101813.50;5013608;28;20057;-57
2022/03/27 07:25:47;;;;;;;22.05;17.58;;;;;;;13.36;61.71;101814.25;5014561;28;20065;-54
2022/03/27 07:28:16;;;;;;;21.45;17.83;;;;;;;13.45;61.26;101806.03;5013614;28;20062;-54
2022/03/27 07:30:45;;;;;;;19.70;16.17;;;;;;;13.55;61.08;101810.66;5012952;28;20053;-56
2022/03/27 07:33:13;;;;;;;19.25;16.13;;;;;;;13.62;60.82;101807.47;5013881;28;20054;-52
2022/03/27 07:35:41;;;;;;;23.15;19.23;;;;;;;13.70;60.57;101806.81;5014163;28;20052;-57
2022/03/27 07:38:09;;;;;;;21.40;16.73;;;;;;;13.75;60.22;101815.13;5003454;28;20053;-57
2022/03/27 07:40:38;;;;;;;22.30;18.58;;;;;;;13.83;60.36;101806.03;5006139;28;20049;-51
2022/03/27 07:43:05;;;;;;;22.27;17.67;;;;;;;13.94;59.72;101807.56;5013720;28;20058;-55
2022/03/27 07:45:35;;;;;;;22.30;17.80;;;;;;;14.03;59.31;101804.88;4998119;28;20065;-55
2022/03/27 07:48:03;;;;;;;25.33;21.25;;;;;;;14.13;58.87;101798.25;5000989;28;20054;-52
2022/03/27 07:50:31;;;;;;;23.90;19.83;;;;;;;14.17;59.01;101799.31;4994430;28;20050;-55
2022/03/27 07:53:01;;;;;;;24.42;21.40;;;;;;;14.25;58.72;101800.59;4994922;28;20054;-56
2022/03/27 07:55:29;;;;;;;24.10;19.13;;;;;;;14.39;58.36;101807.91;5011850;28;20496;-54
2022/03/27 07:57:58;;;;;;;24.27;18.52;;;;;;;14.37;58.13;101806.56;5014089;28;20383;-56
2022/03/27 08:00:27;;;;;;;24.40;19.65;;;;;;;14.44;57.42;101809.78;5010582;28;20058;-55
2022/03/27 08:02:54;;;;;;;22.33;18.35;;;;;;;14.54;57.83;101803.16;5010022;28;20054;-53
2022/03/27 08:05:22;;;;;;;21.30;17.95;;;;;;;14.54;57.45;101808.75;5013836;28;20049;-52
2022/03/27 08:07:50;;;;;;;23.83;19.00;;;;;;;14.69;57.02;101802.91;5002974;28;20058;-52
2022/03/27 08:10:17;;;;;;;20.83;18.45;;;;;;;14.81;56.46;101802.41;5000744;28;20045;-51
2022/03/27 08:12:46;;;;;;;24.30;20.58;;;;;;;14.88;56.27;101801.97;5013204;28;20076;-53
2022/03/27 08:15:17;;;;;;;22.25;19.02;;;;;;;15.01;56.15;101803.94;5013267;28;20093;-50
2022/03/27 08:17:44;;;;;;;22.60;17.17;;;;;;;15.17;55.15;101804.47;5007313;28;20050;-52
2022/03/27 08:20:12;;;;;;;22.92;17.95;;;;;;;15.32;54.85;101812.56;5011576;28;20084;-53
2022/03/27 08:22:40;;;;;;;21.52;18.70;;;;;;;15.29;55.24;101801.97;5011284;28;20061;-56
2022/03/27 08:25:09;;;;;;;21.90;18.52;;;;;;;15.47;54.31;101808.56;5011596;28;21922;-56
2022/03/27 08:27:36;;;;;;;21.95;17.27;;;;;;;15.61;54.12;101800.94;5004566;28;20055;-54
2022/03/27 08:30:07;;;;;;;20.52;17.05;;;;;;;15.70;53.68;101806.66;5012272;28;20487;-51
2022/03/27 08:32:36;;;;;;;20.15;17.98;;;;;;;15.83;53.15;101804.97;5009404;28;20050;-53
2022/03/27 08:35:05;;;;;;;21.57;19.23;;;;;;;15.90;52.80;101812.97;4999642;28;20054;-55
2022/03/27 08:37:33;;;;;;;19.55;15.85;;;;;;;15.89;53.04;101808.50;4993298;28;20506;-54
2022/03/27 08:40:00;;;;;;;18.85;16.67;;;;;;;16.02;52.64;101811.25;4993584;28;20055;-53
2022/03/27 08:42:28;;;;;;;20.35;17.20;;;;;;;16.07;52.39;101810.31;5004627;28;20061;-54
2022/03/27 08:44:55;;;;;;;19.70;17.10;;;;;;;16.05;52.59;101806.97;5002134;28;20077;-55
2022/03/27 08:47:25;;;;;;;18.25;16.25;;;;;;;16.17;52.19;101809.22;5003262;28;20061;-56
2022/03/27 08:50:03;;;;;;;21.02;17.98;;;;;;;16.24;52.00;101804.78;4998272;28;20050;-57
2022/03/27 08:52:54;;;;;;;18.98;16.98;;;;;;;16.32;51.84;101800.38;5007563;28;20072;-56
2022/03/27 08:55:31;;;;;;;18.13;16.23;;;;;;;16.34;52.21;101800.91;4998351;28;20060;-53
2022/03/27 08:58:03;;;;;;;19.50;17.23;;;;;;;16.35;51.50;101802.53;4998887;28;20059;-57
2022/03/27 09:00:33;;;;;;;18.98;16.98;;;;;;;16.52;50.99;101799.00;5009522;28;20061;-51
2022/03/27 09:03:04;;;;;;;18.70;16.77;;;;;;;16.69;50.80;101806.69;5008185;28;20080;-55
2022/03/27 09:05:35;;;;;;;17.50;15.68;;;;;;;16.92;50.84;101801.03;5011926;28;20406;-57
2022/03/27 09:08:04;;;;;;;19.05;17.13;;;;;;;17.05;49.84;101805.75;5012428;28;20053;-54
2022/03/27 09:10:32;;;;;;;18.58;16.65;;;;;;;17.21;49.31;101795.66;5010590;28;20061;-56
2022/03/27 09:13:00;;;;;;;16.98;15.10;;;;;;;17.29;49.26;101804.50;5010721;28;20050;-55
2022/03/27 09:15:27;;;;;;;18.05;15.68;;;;;;;17.22;49.14;101804.97;5011478;28;20049;-57
2022/03/27 09:18:05;;;;;;;17.25;15.15;;;;;;;17.31;48.88;101808.63;5008682;28;20050;-56
2022/03/27 09:20:37;;;;;;;15.68;14.13;;;;;;;17.30;48.98;101809.78;5008262;28;20054;-56
2022/03/27 09:23:16;;;;;;;18.58;16.08;;;;;;;17.30;49.04;101804.13;5010053;28;20054;-57
2022/03/27 09:25:45;;;;;;;15.85;14.25;;;;;;;17.21;48.93;101798.50;5009620;28;20121;-54
2022/03/27 09:28:21;;;;;;;16.35;14.60;;;;;;;17.00;49.67;101812.34;4992569;28;20058;-57
2022/03/27 09:30:48;;;;;;;16.00;14.32;;;;;;;17.03;49.62;101808.88;5010142;28;20061;-53
2022/03/27 09:33:46;;;;;;;17.08;14.55;;;;;;;16.99;49.66;101812.69;5005506;28;20050;-57
2022/03/27 09:36:18;;;;;;;15.13;13.52;;;;;;;17.09;49.50;101801.09;5011031;28;20049;-57
2022/03/27 09:39:08;;;;;;;14.20;12.70;;;;;;;17.03;49.76;101813.69;5008609;28;20414;-56
2022/03/27 09:41:42;;;;;;;14.63;13.13;;;;;;;17.10;49.39;101816.03;5011998;28;20137;-55
2022/03/27 09:44:11;;;;;;;13.18;11.82;;;;;;;17.12;49.56;101810.91;5014871;28;20053;-53
2022/03/27 09:46:55;;;;;;;14.70;12.67;;;;;;;17.10;49.87;101818.84;5008103;28;20060;-57
2022/03/27 09:49:26;;;;;;;12.60;11.30;;;;;;;17.00;49.84;101808.69;5007243;28;21053;-52
2022/03/27 09:52:00;;;;;;;14.32;12.77;;;;;;;17.17;49.74;101802.28;5016297;28;20098;-56
2022/03/27 09:54:30;;;;;;;13.77;12.10;;;;;;;17.19;49.59;101797.16;5014029;28;20061;-54
2022/03/27 09:56:57;;;;;;;;;;;;;;;17.11;49.32;101793.16;5015204;28;20429;-51
2022/03/27 09:59:34;;;;;;;14.15;12.65;;;;;;;16.97;50.20;101798.09;5014347;28;20385;-55
2022/03/27 10:02:18;;;;;;;12.45;11.15;;;;;;;17.18;49.85;101799.16;5005376;28;20058;-51
2022/03/27 10:04:57;;;;;;;12.45;11.15;;;;;;;17.18;49.48;101796.34;5012465;28;20045;-54
2022/03/27 10:07:27;;;;;;;11.15;9.55;;;;;;;17.21;49.55;101800.47;5009819;28;20053;-51
2022/03/27 10:09:54;;;;;;;10.25;9.15;;;;;;;17.21;49.33;101801.31;5014874;28;20054;-50
2022/03/27 10:12:28;;;;;;;11.25;9.98;;;;;;;17.19;49.26;101800.81;5013141;28;20064;-50
2022/03/27 10:14:59;;;;;;;11.18;10.07;;;;;;;17.08;49.38;101790.19;5014306;28;20465;-49
2022/03/27 10:17:28;;;;;;;12.07;10.88;;;;;;;17.11;49.54;101789.53;5014893;28;20045;-55
2022/03/27 10:20:00;;;;;;;12.35;11.02;;;;;;;16.96;50.08;101788.81;5014891;28;20069;-54
2022/03/27 10:22:30;;;;;;;11.40;10.20;;;;;;;17.09;50.06;101789.84;4995844;28;20482;-49
2022/03/27 10:25:03;;;;;;;11.77;10.50;;;;;;;17.11;49.67;101787.53;4995729;28;20058;-50
2022/03/27 10:27:31;;;;;;;13.18;11.77;;;;;;;17.29;49.61;101794.03;4995821;28;20487;-51
2022/03/27 10:29:59;;;;;;;12.95;11.65;;;;;;;17.35;49.20;101778.66;5010915;28;20061;-53
2022/03/27 10:32:27;;;;;;;13.55;12.15;;;;;;;17.38;48.90;101783.63;5015093;28;20049;-55
2022/03/27 10:35:07;;;;;;;11.88;10.68;;;;;;;17.29;48.71;101784.78;5015559;28;20057;-53
2022/03/27 10:37:43;;;;;;;11.80;10.48;;;;;;;17.31;49.28;101777.66;5014962;28;20072;-51
2022/03/27 10:40:22;;;;;;;13.18;11.25;;;;;;;17.28;49.11;101775.47;5015222;28;20521;-53
2022/03/27 10:43:05;;;;;;;11.93;10.73;;;;;;;17.38;49.13;101774.34;5015012;28;20068;-52
2022/03/27 10:45:32;;;;;;;12.48;11.18;;;;;;;17.52;48.79;101779.84;5014608;28;20057;-51
2022/03/27 10:48:14;;;;;;;13.35;11.63;;;;;;;17.49;48.72;101774.84;5015112;28;20061;-51
2022/03/27 10:50:53;;;;;;;11.85;10.25;;;;;;;17.65;48.23;101771.22;5014882;28;20054;-51
2022/03/27 10:53:26;;;;;;;11.38;10.18;;;;;;;17.76;47.67;101768.88;5014519;28;20046;-50
2022/03/27 10:55:56;;;;;;;12.73;10.07;;;;;;;17.74;47.91;101771.22;5014632;28;20053;-49
2022/03/27 10:58:32;;;;;;;12.40;10.98;;;;;;;17.91;47.48;101761.97;5013737;28;20069;-51
2022/03/27 11:01:01;;;;;;;13.23;11.93;;;;;;;17.99;46.83;101768.75;5013956;28;20145;-52
2022/03/27 11:03:52;;;;;;;11.77;10.43;;;;;;;17.92;47.03;101762.81;5014279;28;20057;-50
2022/03/27 11:06:31;;;;;;;11.43;10.32;;;;;;;17.89;46.99;101760.63;5014739;28;20054;-54
2022/03/27 11:09:04;;;;;;;11.15;9.85;;;;;;;18.00;47.17;101759.97;5014771;28;20108;-54
2022/03/27 11:11:54;;;;;;;12.25;10.90;;;;;;;17.94;47.53;101766.13;5014232;28;20537;-51
2022/03/27 11:14:40;;;;;;;11.52;10.40;;;;;;;18.07;47.00;101762.28;5013825;28;20050;-62
2022/03/27 11:17:13;;;;;;;11.57;10.38;;;;;;;18.30;46.43;101760.06;5014002;28;20490;-55
2022/03/27 11:19:45;;;;;;;12.43;11.13;;;;;;;18.48;46.69;101760.88;5013386;28;20485;-53
2022/03/27 11:22:49;;;;;;;11.02;9.93;;;;;;;18.72;46.01;101762.25;5013888;28;20064;-54
2022/03/27 11:25:33;;;;;;;12.23;10.93;;;;;;;18.98;44.89;101751.72;5014267;28;20070;-53
2022/03/27 11:28:10;;;;;;;11.52;10.32;;;;;;;19.15;44.26;101745.13;5013828;28;20046;-52
2022/03/27 11:30:40;;;;;;;11.77;10.57;;;;;;;19.67;43.81;101743.91;5014027;28;20057;-51
2022/03/27 11:33:16;;;;;;;13.35;11.95;;;;;;;20.11;42.29;101744.34;5011332;28;20061;-51